Time;durP1;ratioP1;P1;durP2;ratioP2;P2;SDS_P1;SDS_P2;PMS_P1;PMS_P2;Temp;Humidity;BMP_temperature;BMP_pressure;BME280_temperature;BME280_humidity;BME280_pressure;Samples;Min_cycle;Max_cycle;Signal;HPM_P1;HPM_P2
2021/11/08 00:02:20;;;;;;;1.60;1.40;;;7.70;98.20;;;;;;5016323;28;20890;-76
2021/11/08 00:04:47;;;;;;;1.60;1.30;;;7.80;98.20;;;;;;5023338;28;20470;-75
2021/11/08 00:07:15;;;;;;;1.60;1.30;;;7.80;98.20;;;;;;5019337;28;20875;-76
2021/11/08 00:09:43;;;;;;;1.60;1.30;;;7.80;98.20;;;;;;5023825;28;20463;-76
2021/11/08 00:12:10;;;;;;;1.60;1.40;;;7.90;98.20;;;;;;5022703;28;20471;-76
2021/11/08 00:14:37;;;;;;;1.60;1.30;;;7.90;98.20;;;;;;5029612;28;20878;-75
2021/11/08 00:17:09;;;;;;;1.60;1.20;;;7.90;98.20;;;;;;5031705;28;20479;-76
2021/11/08 00:19:53;;;;;;;1.60;1.20;;;7.90;98.20;;;;;;5029169;28;20471;-75
2021/11/08 00:22:20;;;;;;;1.60;1.30;;;7.90;98.20;;;;;;5027052;28;20958;-76
2021/11/08 00:24:48;;;;;;;1.60;1.23;;;7.90;98.20;;;;;;5019241;28;20763;-76
2021/11/08 00:27:15;;;;;;;1.60;1.30;;;7.90;98.20;;;;;;5021225;28;20499;-76
2021/11/08 00:29:42;;;;;;;1.60;1.30;;;8.00;98.20;;;;;;5024517;28;20495;-75
2021/11/08 00:32:09;;;;;;;1.60;1.30;;;8.00;98.20;;;;;;5018568;28;20849;-77
2021/11/08 00:34:38;;;;;;;1.60;1.23;;;8.00;98.20;;;;;;5029385;28;20477;-76
2021/11/08 00:37:06;;;;;;;1.60;1.30;;;8.00;98.20;;;;;;5023470;28;20484;-75
2021/11/08 00:39:32;;;;;;;1.60;1.27;;;8.00;98.20;;;;;;5022900;28;20474;-76
2021/11/08 00:41:59;;;;;;;1.60;1.20;;;8.00;98.20;;;;;;5025483;28;20459;-76
2021/11/08 00:44:27;;;;;;;1.60;1.20;;;8.00;98.20;;;;;;5026398;28;20470;-76
2021/11/08 00:46:56;;;;;;;1.60;1.30;;;8.00;98.20;;;;;;5022993;28;20506;-75
2021/11/08 00:49:23;;;;;;;1.60;1.40;;;8.00;98.20;;;;;;5025427;28;20920;-74
2021/11/08 00:51:51;;;;;;;1.60;1.27;;;8.00;98.20;;;;;;5026020;28;20977;-74
2021/11/08 00:54:18;;;;;;;1.60;1.20;;;8.00;98.20;;;;;;5025988;28;20459;-76
2021/11/08 00:56:48;;;;;;;1.60;1.20;;;8.00;98.20;;;;;;5024916;28;20859;-77
2021/11/08 00:59:16;;;;;;;1.60;1.27;;;8.00;98.20;;;;;;5025366;28;20469;-76
2021/11/08 01:01:46;;;;;;;1.60;1.30;;;7.90;98.20;;;;;;5025461;28;20505;-75
2021/11/08 01:04:17;;;;;;;1.60;1.23;;;7.90;98.20;;;;;;5026644;28;20826;-75
2021/11/08 01:06:47;;;;;;;1.60;1.30;;;7.90;98.20;;;;;;5024637;28;21033;-77
2021/11/08 01:09:15;;;;;;;1.60;1.20;;;7.90;98.20;;;;;;5025842;28;20481;-75
2021/11/08 01:11:42;;;;;;;1.60;1.40;;;7.90;98.20;;;;;;5025432;28;20470;-77
2021/11/08 01:14:09;;;;;;;1.60;1.30;;;7.80;98.20;;;;;;5025637;28;20471;-76
2021/11/08 01:16:37;;;;;;;1.60;1.30;;;7.80;98.20;;;;;;5026062;28;20970;-75
2021/11/08 01:19:06;;;;;;;1.60;1.30;;;7.80;98.20;;;;;;5027354;28;20467;-76
2021/11/08 01:21:33;;;;;;;1.60;1.30;;;7.80;98.20;;;;;;5028682;28;20961;-76
2021/11/08 01:24:01;;;;;;;1.60;1.30;;;7.90;98.20;;;;;;5029107;28;20482;-76
2021/11/08 01:26:30;;;;;;;1.60;1.30;;;7.90;98.20;;;;;;5027483;28;20463;-76
2021/11/08 01:28:57;;;;;;;1.60;1.30;;;7.90;98.20;;;;;;5027691;28;20463;-75
2021/11/08 01:31:24;;;;;;;1.60;1.20;;;7.90;98.20;;;;;;5027042;28;20455;-76
2021/11/08 01:33:53;;;;;;;1.60;1.20;;;7.90;98.20;;;;;;5028331;28;20464;-77
2021/11/08 01:36:24;;;;;;;1.60;1.30;;;8.00;98.20;;;;;;5027656;28;20463;-75
2021/11/08 01:38:54;;;;;;;1.60;1.30;;;8.00;98.20;;;;;;5026328;28;20467;-76
2021/11/08 01:41:22;;;;;;;1.60;1.30;;;8.00;98.20;;;;;;5028742;28;20558;-77
2021/11/08 01:43:51;;;;;;;1.60;1.40;;;8.00;98.20;;;;;;5027974;28;20466;-75
2021/11/08 01:46:19;;;;;;;1.60;1.23;;;8.00;98.20;;;;;;5019858;28;20973;-76
2021/11/08 01:48:47;;;;;;;1.60;1.33;;;8.10;98.20;;;;;;5025838;28;20495;-77
2021/11/08 01:51:14;;;;;;;1.60;1.23;;;8.10;98.20;;;;;;5027401;28;20463;-76
2021/11/08 01:53:41;;;;;;;1.60;1.23;;;8.10;98.20;;;;;;5028384;28;20470;-77
2021/11/08 01:56:08;;;;;;;1.60;1.20;;;8.10;98.20;;;;;;5027739;28;20467;-77
2021/11/08 01:58:35;;;;;;;1.60;1.20;;;8.10;98.20;;;;;;5027710;28;20484;-76
2021/11/08 02:01:04;;;;;;;1.60;1.20;;;8.20;98.20;;;;;;5027214;28;20550;-76
2021/11/08 02:03:31;;;;;;;1.60;1.27;;;8.10;98.20;;;;;;5028788;28;20467;-76
2021/11/08 02:05:58;;;;;;;1.60;1.30;;;8.20;98.20;;;;;;5027904;28;20460;-77
2021/11/08 02:08:27;;;;;;;1.60;1.30;;;8.20;98.20;;;;;;5027450;28;20499;-76
2021/11/08 02:10:55;;;;;;;45.93;6.50;;;8.20;98.20;;;;;;5026527;28;20486;-77
2021/11/08 02:13:23;;;;;;;1.60;1.20;;;8.20;98.20;;;;;;5028067;28;20950;-76
2021/11/08 02:15:50;;;;;;;1.60;1.20;;;8.20;98.20;;;;;;5028406;28;20463;-76
2021/11/08 02:18:20;;;;;;;1.60;1.20;;;8.20;98.20;;;;;;5027319;28;20479;-76
2021/11/08 02:20:49;;;;;;;1.60;1.20;;;8.20;98.20;;;;;;5028143;28;20558;-76
2021/11/08 02:23:17;;;;;;;1.60;1.40;;;8.30;98.20;;;;;;5029566;28;20475;-77
2021/11/08 02:25:47;;;;;;;1.60;1.30;;;8.30;98.20;;;;;;5027887;28;20471;-76
2021/11/08 02:28:14;;;;;;;1.60;1.30;;;8.30;98.20;;;;;;5027702;28;20487;-75
2021/11/08 02:30:43;;;;;;;1.60;1.20;;;8.30;98.20;;;;;;5028567;28;20956;-76
2021/11/08 02:33:12;;;;;;;1.60;1.40;;;8.30;98.20;;;;;;5028680;28;20463;-76
2021/11/08 02:35:39;;;;;;;1.60;1.27;;;8.30;98.20;;;;;;5028418;28;20703;-76
2021/11/08 02:38:11;;;;;;;1.60;1.23;;;8.30;98.20;;;;;;5025549;28;20793;-76
2021/11/08 02:40:38;;;;;;;1.60;1.20;;;8.30;98.20;;;;;;5018909;28;20528;-76
2021/11/08 02:43:06;;;;;;;1.60;1.30;;;8.30;98.20;;;;;;5029558;28;20458;-76
2021/11/08 02:45:35;;;;;;;1.60;1.40;;;8.30;98.20;;;;;;5034899;28;20957;-76
2021/11/08 02:48:03;;;;;;;1.60;1.20;;;8.30;98.20;;;;;;5031260;28;20486;-76
2021/11/08 02:50:32;;;;;;;1.60;1.20;;;8.30;98.20;;;;;;5028245;28;20767;-76
2021/11/08 02:53:00;;;;;;;1.60;1.20;;;8.30;98.20;;;;;;5027981;28;20589;-77
2021/11/08 02:55:30;;;;;;;1.60;1.30;;;8.30;98.20;;;;;;5029459;28;20481;-76
2021/11/08 02:57:57;;;;;;;1.60;1.30;;;8.30;98.20;;;;;;5030170;28;21009;-76
2021/11/08 03:00:26;;;;;;;1.60;1.30;;;8.40;98.20;;;;;;5031628;28;20466;-76
2021/11/08 03:02:54;;;;;;;1.60;1.30;;;8.40;98.20;;;;;;5031435;28;21029;-76
2021/11/08 03:05:30;;;;;;;1.60;1.23;;;8.40;98.20;;;;;;5030709;28;20471;-76
2021/11/08 03:07:57;;;;;;;1.60;1.30;;;8.40;98.20;;;;;;5029978;28;20502;-76
2021/11/08 03:10:29;;;;;;;1.60;1.30;;;8.40;98.20;;;;;;5029919;28;20825;-76
2021/11/08 03:12:59;;;;;;;1.60;1.27;;;8.40;98.20;;;;;;5030970;28;20813;-76
2021/11/08 03:15:37;;;;;;;1.60;1.20;;;8.40;98.20;;;;;;5029155;28;20463;-76
2021/11/08 03:18:06;;;;;;;1.60;1.20;;;8.40;98.20;;;;;;5029845;28;20475;-76
2021/11/08 03:20:35;;;;;;;1.60;1.30;;;8.40;98.20;;;;;;5030539;28;20872;-77
2021/11/08 03:23:06;;;;;;;1.60;1.30;;;8.40;98.20;;;;;;5030424;28;20467;-76
2021/11/08 03:25:40;;;;;;;1.60;1.30;;;8.40;98.20;;;;;;5030513;28;20517;-76
2021/11/08 03:28:10;;;;;;;1.60;1.20;;;8.40;98.20;;;;;;5023452;28;20494;-77
2021/11/08 03:30:41;;;;;;;1.60;1.20;;;8.40;98.20;;;;;;5030751;28;20482;-76
2021/11/08 03:33:10;;;;;;;1.60;1.20;;;8.40;98.20;;;;;;5030942;28;20467;-76
2021/11/08 03:35:37;;;;;;;1.60;1.30;;;8.50;98.20;;;;;;5030014;28;20470;-77
2021/11/08 03:38:07;;;;;;;1.60;1.20;;;8.50;98.20;;;;;;5026849;28;20484;-77
2021/11/08 03:40:36;;;;;;;1.60;1.20;;;8.50;98.20;;;;;;5009203;28;20472;-76
2021/11/08 03:43:05;;;;;;;1.60;1.10;;;8.50;98.20;;;;;;5004593;28;20551;-76
2021/11/08 03:45:35;;;;;;;1.60;1.23;;;8.50;98.20;;;;;;4996703;28;20489;-76
2021/11/08 03:48:03;;;;;;;1.60;1.20;;;8.50;98.20;;;;;;5006009;28;20485;-76
2021/11/08 03:50:30;;;;;;;1.60;1.20;;;8.50;98.20;;;;;;5006845;28;20472;-77
2021/11/08 03:52:57;;;;;;;1.60;1.20;;;8.50;98.20;;;;;;5009244;28;20710;-76
2021/11/08 03:55:25;;;;;;;1.60;1.30;;;8.50;98.20;;;;;;5007934;28;20460;-76
2021/11/08 03:57:53;;;;;;;1.60;1.20;;;8.50;98.20;;;;;;5014478;28;20530;-77
2021/11/08 04:00:23;;;;;;;1.60;1.20;;;8.50;98.20;;;;;;5014794;28;20495;-77
2021/11/08 04:02:51;;;;;;;1.57;1.20;;;8.50;98.20;;;;;;5013945;28;20842;-77
2021/11/08 04:05:19;;;;;;;1.60;1.20;;;8.50;98.20;;;;;;5001741;28;20491;-78
2021/11/08 04:07:47;;;;;;;1.60;1.30;;;8.50;98.20;;;;;;5009388;28;20575;-77
2021/11/08 04:10:16;;;;;;;1.60;1.30;;;8.50;98.20;;;;;;5008749;28;20472;-76
2021/11/08 04:12:43;;;;;;;1.60;1.20;;;8.50;98.20;;;;;;5010658;28;20467;-77
2021/11/08 04:15:11;;;;;;;1.60;1.30;;;8.50;98.20;;;;;;5010370;28;20951;-76
2021/11/08 04:17:43;;;;;;;1.60;1.20;;;8.50;98.20;;;;;;5004846;28;20484;-77
2021/11/08 04:20:14;;;;;;;1.60;1.20;;;8.50;98.20;;;;;;5005746;28;20468;-76
2021/11/08 04:22:40;;;;;;;1.60;1.20;;;8.50;98.20;;;;;;5011153;28;20468;-76
2021/11/08 04:25:09;;;;;;;1.60;1.30;;;8.50;98.20;;;;;;5010435;28;21031;-76
2021/11/08 04:27:37;;;;;;;1.60;1.20;;;8.50;98.20;;;;;;5008096;28;20489;-76
2021/11/08 04:30:06;;;;;;;1.60;1.20;;;8.50;98.20;;;;;;5009819;28;20474;-76
2021/11/08 04:32:38;;;;;;;1.60;1.20;;;8.40;98.20;;;;;;5009048;28;21049;-76
2021/11/08 04:35:11;;;;;;;1.60;1.20;;;8.40;98.20;;;;;;5009827;28;20959;-76
2021/11/08 04:37:53;;;;;;;1.60;1.30;;;8.40;98.20;;;;;;5008218;28;20538;-77
2021/11/08 04:40:25;;;;;;;1.60;1.20;;;8.40;98.20;;;;;;5007693;28;20546;-76
2021/11/08 04:42:59;;;;;;;1.60;1.20;;;8.40;98.20;;;;;;5001686;28;20500;-76
2021/11/08 04:45:56;;;;;;;1.60;1.30;;;8.40;98.20;;;;;;5005846;28;20959;-76
2021/11/08 04:51:20;;;;;;;1.60;1.30;;;8.50;98.20;;;;;;4954124;28;20479;-76
2021/11/08 04:53:54;;;;;;;1.60;1.20;;;8.40;98.20;;;;;;5009724;28;20951;-76
2021/11/08 05:31:59;;;;;;;1.60;1.20;;;8.30;98.20;;;;;;4997491;28;20487;-76
2021/11/08 05:34:26;;;;;;;1.57;1.20;;;8.30;98.20;;;;;;5001036;28;20467;-76
2021/11/08 05:36:53;;;;;;;1.60;1.30;;;8.30;98.20;;;;;;4995537;28;20856;-75
2021/11/08 05:39:19;;;;;;;1.60;1.20;;;8.30;98.20;;;;;;5021293;28;20471;-74
2021/11/08 05:41:48;;;;;;;1.57;1.20;;;8.30;98.20;;;;;;5028134;28;20463;-75
2021/11/08 05:44:15;;;;;;;1.60;1.20;;;8.30;98.20;;;;;;5028223;28;20595;-75
2021/11/08 05:46:42;;;;;;;1.57;1.23;;;8.40;98.20;;;;;;5027069;28;20537;-75
2021/11/08 05:49:09;;;;;;;1.60;1.30;;;8.30;98.20;;;;;;5026928;28;20517;-74
2021/11/08 05:51:36;;;;;;;1.60;1.20;;;8.40;98.20;;;;;;5030481;28;20485;-77
2021/11/08 05:54:03;;;;;;;1.60;1.20;;;8.40;98.20;;;;;;5027839;28;20463;-76
2021/11/08 05:56:33;;;;;;;1.60;1.20;;;8.40;98.20;;;;;;5022098;28;20556;-76
2021/11/08 05:59:16;;;;;;;1.60;1.20;;;8.40;98.20;;;;;;5024157;28;20466;-75
2021/11/08 06:51:19;;;;;;;1.60;1.20;;;8.30;98.20;;;;;;5030181;28;20954;-78
2021/11/08 06:53:47;;;;;;;1.60;1.40;;;8.30;98.20;;;;;;5029307;28;20494;-77
2021/11/08 06:56:22;;;;;;;1.60;1.20;;;8.30;98.20;;;;;;5031996;28;20539;-78
2021/11/08 06:58:49;;;;;;;1.60;1.30;;;8.40;98.20;;;;;;5029501;28;20481;-77
2021/11/08 07:01:16;;;;;;;1.60;1.23;;;8.40;98.20;;;;;;5029722;28;20459;-76
2021/11/08 07:03:44;;;;;;;1.60;1.20;;;8.40;98.20;;;;;;5032773;28;20471;-77
2021/11/08 07:06:10;;;;;;;1.60;1.30;;;8.40;98.20;;;;;;5030737;28;20471;-76
2021/11/08 07:08:37;;;;;;;1.60;1.20;;;8.40;98.20;;;;;;5029726;28;20487;-76
2021/11/08 07:11:04;;;;;;;1.60;1.20;;;8.40;98.20;;;;;;5030462;28;20463;-77
2021/11/08 07:13:31;;;;;;;1.60;1.20;;;8.40;98.20;;;;;;5031294;28;20823;-76
2021/11/08 07:15:57;;;;;;;1.60;1.27;;;8.40;98.20;;;;;;5030322;28;20525;-77
2021/11/08 07:18:24;;;;;;;3.13;2.93;;;8.40;98.20;;;;;;5029995;28;20479;-74
2021/11/08 07:20:52;;;;;;;1.60;1.20;;;8.40;98.20;;;;;;5031376;28;20467;-74
2021/11/08 07:23:19;;;;;;;1.57;1.20;;;8.50;98.20;;;;;;5030778;28;20485;-74
2021/11/08 07:25:46;;;;;;;1.60;1.30;;;8.50;98.20;;;;;;5029515;28;20459;-74
2021/11/08 07:28:14;;;;;;;1.60;1.20;;;8.50;98.20;;;;;;5028916;28;20501;-74
2021/11/08 07:30:43;;;;;;;1.60;1.20;;;8.50;98.20;;;;;;5029190;28;20459;-73
2021/11/08 07:33:11;;;;;;;1.60;1.20;;;8.60;98.20;;;;;;5029061;28;20970;-73
2021/11/08 07:35:38;;;;;;;1.60;1.30;;;8.60;98.20;;;;;;5027668;28;20465;-74
2021/11/08 07:38:06;;;;;;;1.60;1.30;;;8.60;98.20;;;;;;5028939;28;20475;-74
2021/11/08 07:40:32;;;;;;;1.60;1.20;;;8.60;98.20;;;;;;5027214;28;20467;-74
2021/11/08 07:42:59;;;;;;;1.60;1.20;;;8.70;98.20;;;;;;5028457;28;20494;-74
2021/11/08 07:45:26;;;;;;;1.60;1.20;;;8.70;98.20;;;;;;5024892;28;20458;-74
2021/11/08 07:47:54;;;;;;;1.60;1.20;;;8.80;98.20;;;;;;5026359;28;20511;-74
2021/11/08 07:50:21;;;;;;;1.60;1.30;;;8.80;98.20;;;;;;5028761;28;20455;-74
2021/11/08 07:52:48;;;;;;;1.60;1.30;;;8.90;98.20;;;;;;5029531;28;20466;-74
2021/11/08 07:55:16;;;;;;;1.60;1.30;;;9.00;98.20;;;;;;5029853;28;20482;-76
2021/11/08 07:57:42;;;;;;;3.23;1.97;;;9.00;98.20;;;;;;5028088;28;20502;-76
2021/11/08 08:00:10;;;;;;;1.60;1.20;;;9.00;98.20;;;;;;5028438;28;20455;-75
2021/11/08 08:02:37;;;;;;;1.60;1.20;;;9.00;98.20;;;;;;5028719;28;20467;-74
2021/11/08 08:05:05;;;;;;;1.60;1.20;;;9.10;98.20;;;;;;5029411;28;20471;-74
2021/11/08 08:07:32;;;;;;;1.60;1.20;;;9.10;98.20;;;;;;5027896;28;20491;-76
2021/11/08 08:09:58;;;;;;;1.60;1.20;;;9.10;98.20;;;;;;5029468;28;20487;-74
2021/11/08 08:12:27;;;;;;;1.60;1.30;;;9.20;98.20;;;;;;5029253;28;20459;-74
2021/11/08 08:14:53;;;;;;;1.60;1.20;;;9.20;98.20;;;;;;5029089;28;20463;-74
2021/11/08 08:17:20;;;;;;;1.60;1.30;;;9.30;98.20;;;;;;5033453;28;20478;-74
2021/11/08 08:19:48;;;;;;;1.60;1.10;;;9.30;98.20;;;;;;5035744;28;20470;-74
2021/11/08 08:22:14;;;;;;;2.23;2.03;;;9.30;98.20;;;;;;5028394;28;20475;-74
2021/11/08 08:24:41;;;;;;;1.60;1.30;;;9.40;98.20;;;;;;5028898;28;20928;-74
2021/11/08 08:27:09;;;;;;;1.60;1.20;;;9.40;98.20;;;;;;5024159;28;20486;-74
2021/11/08 08:29:37;;;;;;;1.60;1.20;;;9.40;98.20;;;;;;5029475;28;20489;-74
2021/11/08 08:32:04;;;;;;;1.60;1.10;;;9.50;98.20;;;;;;5029156;28;20946;-74
2021/11/08 08:34:31;;;;;;;1.60;1.20;;;9.50;98.20;;;;;;5028779;28;20455;-76
2021/11/08 08:36:58;;;;;;;1.60;1.30;;;9.50;98.20;;;;;;5025576;28;20502;-78
2021/11/08 08:39:26;;;;;;;1.60;1.10;;;9.50;98.20;;;;;;5010512;28;20469;-76
2021/11/08 08:41:54;;;;;;;1.60;1.13;;;9.60;98.20;;;;;;5008154;28;20469;-74
2021/11/08 08:44:21;;;;;;;1.60;1.10;;;9.60;98.20;;;;;;5008368;28;20474;-75
2021/11/08 08:46:50;;;;;;;1.60;1.20;;;9.60;98.20;;;;;;5000679;28;20475;-74
2021/11/08 08:49:18;;;;;;;1.60;1.10;;;9.70;98.20;;;;;;5008231;28;20484;-76
2021/11/08 08:51:46;;;;;;;1.60;1.20;;;9.70;98.20;;;;;;5003649;28;20471;-74
2021/11/08 08:54:13;;;;;;;1.60;1.17;;;9.80;98.20;;;;;;4989515;28;20469;-74
2021/11/08 08:56:41;;;;;;;1.60;1.20;;;9.90;98.20;;;;;;5003818;28;20484;-75
2021/11/08 08:59:08;;;;;;;1.60;1.20;;;9.90;98.20;;;;;;5008585;28;20499;-76
2021/11/08 09:01:36;;;;;;;1.60;1.20;;;10.00;98.20;;;;;;5008641;28;20499;-74
2021/11/08 09:04:05;;;;;;;1.60;1.20;;;10.10;98.20;;;;;;4989606;28;20479;-76
2021/11/08 09:06:32;;;;;;;1.60;1.20;;;10.10;98.20;;;;;;5010085;28;20969;-75
2021/11/08 09:08:59;;;;;;;1.60;1.20;;;10.20;98.20;;;;;;5008732;28;20519;-74
2021/11/08 09:11:26;;;;;;;1.60;1.20;;;10.20;98.20;;;;;;5002084;28;20476;-74
2021/11/08 09:13:53;;;;;;;1.60;1.10;;;10.20;98.20;;;;;;5008262;28;20468;-76
2021/11/08 09:16:21;;;;;;;1.60;1.10;;;10.30;98.20;;;;;;5012863;28;20460;-76
2021/11/08 09:18:51;;;;;;;1.60;1.10;;;10.30;98.20;;;;;;5009596;28;20816;-76
2021/11/08 09:21:21;;;;;;;1.60;1.20;;;10.30;98.20;;;;;;5002234;28;20468;-76
2021/11/08 09:23:49;;;;;;;1.60;1.20;;;10.30;98.20;;;;;;4995722;28;20467;-76
2021/11/08 09:26:16;;;;;;;1.60;1.10;;;10.30;98.20;;;;;;4996698;28;20472;-76
2021/11/08 09:28:44;;;;;;;1.60;1.20;;;10.40;98.20;;;;;;5001464;28;20467;-78
2021/11/08 09:31:11;;;;;;;1.60;1.20;;;10.40;98.20;;;;;;4999481;28;20474;-77
2021/11/08 09:33:38;;;;;;;1.60;1.10;;;10.40;98.20;;;;;;5000891;28;20806;-76
2021/11/08 09:36:08;;;;;;;1.60;1.10;;;10.40;98.20;;;;;;5004523;28;20507;-76
2021/11/08 09:38:38;;;;;;;1.60;1.10;;;10.30;98.20;;;;;;4992466;28;20489;-76
2021/11/08 09:41:12;;;;;;;1.60;1.20;;;10.30;98.20;;;;;;4999446;28;20462;-75
2021/11/08 09:43:41;;;;;;;1.60;1.20;;;10.30;98.20;;;;;;5010837;28;20491;-75
2021/11/08 09:46:08;;;;;;;1.60;1.10;;;10.30;98.20;;;;;;5009254;28;20466;-74
2021/11/08 09:48:38;;;;;;;1.60;1.10;;;10.40;98.20;;;;;;5000011;28;21072;-76
2021/11/08 09:51:09;;;;;;;2.23;2.03;;;10.50;98.20;;;;;;5000190;28;20469;-74
2021/11/08 09:53:38;;;;;;;1.60;1.10;;;10.60;98.20;;;;;;4997914;28;20490;-76
2021/11/08 09:56:06;;;;;;;1.60;1.17;;;10.70;98.20;;;;;;5003718;28;20478;-74
2021/11/08 09:58:34;;;;;;;1.60;1.10;;;10.90;98.20;;;;;;5006554;28;20566;-74
2021/11/08 10:01:06;;;;;;;1.60;1.10;;;11.00;98.20;;;;;;5001906;28;20594;-75
2021/11/08 10:03:33;;;;;;;1.60;1.20;;;11.00;98.20;;;;;;4997314;28;21161;-73
2021/11/08 10:06:01;;;;;;;1.60;1.10;;;11.20;98.20;;;;;;5007289;28;20535;-76
2021/11/08 10:08:33;;;;;;;1.60;1.20;;;11.30;98.20;;;;;;4990982;28;20488;-76
2021/11/08 10:11:04;;;;;;;1.60;1.20;;;11.30;98.20;;;;;;5008668;28;20574;-75
2021/11/08 10:13:32;;;;;;;1.60;1.10;;;11.30;98.20;;;;;;5015886;28;20467;-76
2021/11/08 10:16:03;;;;;;;1.60;1.00;;;11.20;98.20;;;;;;5018454;28;20466;-76
2021/11/08 10:18:31;;;;;;;1.60;1.20;;;11.20;98.20;;;;;;5010737;28;20886;-76
2021/11/08 10:21:07;;;;;;;1.60;1.10;;;11.30;98.20;;;;;;5017353;28;20455;-76
2021/11/08 10:23:36;;;;;;;1.60;1.20;;;11.40;98.20;;;;;;5013975;28;20455;-77
2021/11/08 10:26:08;;;;;;;1.60;1.10;;;11.60;98.20;;;;;;5009681;28;20459;-76
2021/11/08 10:28:36;;;;;;;1.60;1.00;;;11.70;98.20;;;;;;5008411;28;20484;-77
2021/11/08 10:31:09;;;;;;;1.60;1.10;;;11.80;98.20;;;;;;5002261;28;20982;-76
2021/11/08 10:33:38;;;;;;;1.60;1.10;;;11.90;98.20;;;;;;5006109;28;20459;-77
2021/11/08 10:36:13;;;;;;;1.60;1.00;;;12.00;98.20;;;;;;5001967;28;20545;-77
2021/11/08 10:38:41;;;;;;;1.60;1.00;;;12.10;98.20;;;;;;4998044;28;20492;-77
2021/11/08 10:41:12;;;;;;;1.60;1.03;;;12.10;98.20;;;;;;5027806;28;20470;-77
2021/11/08 10:43:41;;;;;;;1.60;1.10;;;12.20;98.20;;;;;;5028135;28;20951;-77
2021/11/08 10:46:11;;;;;;;1.60;1.10;;;12.30;98.20;;;;;;5029489;28;20473;-77
2021/11/08 10:48:40;;;;;;;1.60;1.03;;;12.40;98.20;;;;;;5029966;28;20822;-76
2021/11/08 10:51:09;;;;;;;1.60;1.10;;;12.40;98.20;;;;;;5027675;28;20494;-76
2021/11/08 10:53:45;;;;;;;1.57;1.10;;;12.40;98.20;;;;;;5027774;28;20489;-77
2021/11/08 10:56:14;;;;;;;1.60;1.00;;;12.50;98.20;;;;;;5027308;28;20469;-76
2021/11/08 10:58:44;;;;;;;1.53;1.00;;;12.50;98.20;;;;;;5026888;28;20470;-74
2021/11/08 11:01:21;;;;;;;1.50;1.00;;;12.50;98.20;;;;;;5027136;28;20459;-76
2021/11/08 11:03:49;;;;;;;1.60;1.00;;;12.60;98.20;;;;;;5028030;28;20463;-76
2021/11/08 11:06:16;;;;;;;1.53;1.00;;;12.60;98.20;;;;;;5027558;28;20471;-77
2021/11/08 11:08:50;;;;;;;1.53;1.10;;;12.60;98.20;;;;;;5027225;28;20490;-78
2021/11/08 11:11:24;;;;;;;1.53;1.00;;;12.50;98.20;;;;;;5027871;28;20589;-78
2021/11/08 11:13:52;;;;;;;1.53;1.00;;;12.50;98.20;;;;;;5026065;28;20463;-75
2021/11/08 11:16:32;;;;;;;1.53;1.00;;;12.50;98.20;;;;;;5029116;28;20458;-75
2021/11/08 11:19:01;;;;;;;1.53;1.00;;;12.50;98.20;;;;;;5026989;28;20844;-76
2021/11/08 11:21:28;;;;;;;1.50;1.07;;;12.60;98.20;;;;;;5026915;28;20529;-76
2021/11/08 11:24:01;;;;;;;1.57;1.00;;;12.50;98.20;;;;;;5027935;28;20491;-76
2021/11/08 11:26:35;;;;;;;1.50;1.00;;;12.50;98.20;;;;;;5022643;28;20590;-76
2021/11/08 11:29:02;;;;;;;1.57;1.10;;;12.60;98.20;;;;;;5021941;28;20491;-74
2021/11/08 11:31:34;;;;;;;1.90;1.57;;;12.60;98.20;;;;;;5024671;28;21135;-74
2021/11/08 11:34:14;;;;;;;1.53;1.00;;;12.50;98.20;;;;;;5025268;28;20552;-74
2021/11/08 11:36:41;;;;;;;1.50;1.00;;;12.50;98.20;;;;;;5022277;28;21053;-73
2021/11/08 11:39:12;;;;;;;1.53;1.00;;;12.60;98.20;;;;;;5020241;28;20974;-75
2021/11/08 11:41:43;;;;;;;1.57;1.00;;;12.60;98.20;;;;;;5023273;28;20526;-75
2021/11/08 11:44:11;;;;;;;1.50;1.00;;;12.60;98.20;;;;;;5027440;28;20459;-74
2021/11/08 11:46:41;;;;;;;1.57;1.00;;;12.60;98.20;;;;;;5021795;28;20494;-75
2021/11/08 11:49:09;;;;;;;1.53;1.00;;;12.70;98.20;;;;;;5021532;28;20466;-75
2021/11/08 11:51:41;;;;;;;1.57;1.00;;;12.70;98.20;;;;;;5028399;28;20847;-75
2021/11/08 11:54:10;;;;;;;1.60;1.10;;;12.70;98.20;;;;;;5022574;28;20488;-75
2021/11/08 11:56:39;;;;;;;1.57;1.00;;;12.70;98.20;;;;;;5025301;28;20483;-74
2021/11/08 11:59:09;;;;;;;1.57;1.07;;;12.70;98.20;;;;;;5026075;28;20953;-75
2021/11/08 12:01:38;;;;;;;1.57;1.10;;;12.70;98.20;;;;;;5029656;28;20460;-75
2021/11/08 12:04:07;;;;;;;1.60;1.00;;;12.80;98.20;;;;;;5028464;28;20467;-74
2021/11/08 12:06:47;;;;;;;1.53;1.03;;;12.80;98.20;;;;;;5026862;28;20475;-75
2021/11/08 12:09:17;;;;;;;1.53;1.00;;;12.90;98.20;;;;;;5028459;28;20463;-76
2021/11/08 12:11:47;;;;;;;1.60;1.00;;;12.90;98.20;;;;;;5026771;28;20463;-75
2021/11/08 12:14:18;;;;;;;1.50;1.00;;;13.00;98.20;;;;;;5029890;28;20535;-76
2021/11/08 12:16:57;;;;;;;1.53;1.00;;;13.10;98.20;;;;;;5027252;28;21004;-76
2021/11/08 12:19:26;;;;;;;1.60;1.03;;;13.10;98.20;;;;;;5029064;28;20528;-76
2021/11/08 12:21:54;;;;;;;1.60;1.00;;;13.20;98.20;;;;;;5026917;28;20459;-76
2021/11/08 12:24:23;;;;;;;1.57;1.00;;;13.10;98.20;;;;;;5024531;28;20479;-76
2021/11/08 12:27:05;;;;;;;1.60;1.00;;;13.10;98.20;;;;;;5007564;28;20563;-76
2021/11/08 12:29:35;;;;;;;1.57;1.03;;;13.10;98.20;;;;;;5032792;28;20471;-76
2021/11/08 12:32:04;;;;;;;1.57;1.00;;;13.10;98.20;;;;;;5020721;28;20463;-76
2021/11/08 12:34:39;;;;;;;1.57;1.00;;;13.10;98.20;;;;;;5027107;28;20474;-76
2021/11/08 12:37:06;;;;;;;1.53;1.00;;;13.10;98.20;;;;;;5029756;28;20541;-77
2021/11/08 12:39:33;;;;;;;1.60;1.00;;;13.20;98.20;;;;;;5021099;28;20948;-76
2021/11/08 12:42:03;;;;;;;1.60;1.00;;;13.20;98.20;;;;;;5026501;28;20845;-77
2021/11/08 12:44:38;;;;;;;1.57;1.00;;;13.20;98.20;;;;;;5020374;28;20576;-74
2021/11/08 12:47:06;;;;;;;1.57;1.00;;;13.20;98.20;;;;;;5017400;28;20494;-77
2021/11/08 12:49:35;;;;;;;1.57;1.07;;;13.30;98.20;;;;;;5019592;28;20468;-77
2021/11/08 12:52:10;;;;;;;1.50;1.10;;;13.30;98.20;;;;;;5017301;28;20559;-77
2021/11/08 12:54:50;;;;;;;1.57;1.00;;;13.20;98.20;;;;;;5024383;28;20463;-77
2021/11/08 12:57:19;;;;;;;1.57;1.00;;;13.20;98.20;;;;;;5020888;28;20486;-76
2021/11/08 12:59:50;;;;;;;1.53;0.90;;;13.10;98.20;;;;;;5024151;28;20458;-74
2021/11/08 13:02:27;;;;;;;1.57;1.00;;;13.10;98.20;;;;;;5015511;28;20872;-77
2021/11/08 13:04:56;;;;;;;1.53;1.00;;;13.10;98.20;;;;;;5025656;28;20498;-76
2021/11/08 13:07:24;;;;;;;1.53;1.00;;;13.10;98.20;;;;;;5022998;28;20493;-75
2021/11/08 13:09:54;;;;;;;1.57;1.00;;;13.10;98.20;;;;;;5023308;28;20471;-76
2021/11/08 13:12:23;;;;;;;1.50;1.00;;;13.10;98.20;;;;;;5014548;28;20844;-74
2021/11/08 13:15:07;;;;;;;1.57;0.97;;;13.10;98.20;;;;;;5019130;28;20521;-76
2021/11/08 13:17:45;;;;;;;1.53;1.00;;;13.00;98.20;;;;;;5014517;28;20491;-74
2021/11/08 13:20:12;;;;;;;1.53;1.00;;;13.00;98.20;;;;;;5022316;28;20981;-75
2021/11/08 13:22:41;;;;;;;1.50;1.00;;;13.00;98.20;;;;;;5024574;28;20470;-75
2021/11/08 13:25:11;;;;;;;1.53;1.00;;;13.00;98.20;;;;;;5021743;28;20467;-74
2021/11/08 13:27:43;;;;;;;1.57;1.07;;;13.00;98.20;;;;;;5014040;28;20936;-76
2021/11/08 13:30:12;;;;;;;1.57;1.00;;;13.00;98.20;;;;;;5015602;28;20510;-74
2021/11/08 13:32:39;;;;;;;1.53;1.00;;;13.00;98.20;;;;;;5026979;28;20471;-76
2021/11/08 13:35:13;;;;;;;1.60;1.07;;;13.00;98.20;;;;;;5018085;28;20463;-76
2021/11/08 13:37:42;;;;;;;1.60;1.10;;;13.00;98.20;;;;;;5016379;28;20854;-76
2021/11/08 13:40:20;;;;;;;2.90;2.70;;;13.00;98.20;;;;;;5003531;28;20847;-77
2021/11/08 13:42:48;;;;;;;1.53;1.00;;;13.00;98.20;;;;;;5009112;28;20463;-76
2021/11/08 13:45:16;;;;;;;1.53;1.00;;;12.90;98.20;;;;;;5020077;28;20470;-77
2021/11/08 13:47:46;;;;;;;1.50;1.03;;;12.90;98.20;;;;;;5010490;28;20492;-76
2021/11/08 13:50:15;;;;;;;1.53;0.90;;;12.90;98.20;;;;;;5008900;28;20505;-78
2021/11/08 13:52:42;;;;;;;1.57;1.00;;;12.80;98.20;;;;;;5010499;28;20474;-76
2021/11/08 13:55:12;;;;;;;1.53;1.07;;;12.80;98.20;;;;;;5008134;28;20491;-77
2021/11/08 13:57:43;;;;;;;1.57;1.10;;;12.80;98.20;;;;;;5011302;28;20483;-77
2021/11/08 14:00:17;;;;;;;1.60;1.10;;;12.80;98.20;;;;;;5017094;28;20973;-75
2021/11/08 14:02:45;;;;;;;1.53;1.00;;;12.70;98.20;;;;;;5007397;28;20463;-74
2021/11/08 14:05:13;;;;;;;1.53;1.00;;;12.70;98.20;;;;;;5006889;28;20472;-74
2021/11/08 14:07:40;;;;;;;1.60;1.10;;;12.70;98.20;;;;;;5010880;28;20834;-76
2021/11/08 14:10:10;;;;;;;1.53;1.10;;;12.60;98.20;;;;;;5008993;28;20468;-77
2021/11/08 14:12:38;;;;;;;1.60;1.00;;;12.60;98.20;;;;;;5004732;28;20465;-75
2021/11/08 14:15:07;;;;;;;1.50;1.00;;;12.60;98.20;;;;;;5012372;28;20503;-74
2021/11/08 14:17:40;;;;;;;1.50;1.00;;;12.60;98.20;;;;;;5005058;28;20496;-75
2021/11/08 14:20:10;;;;;;;1.57;1.10;;;12.60;98.20;;;;;;5008113;28;21021;-74
2021/11/08 14:22:38;;;;;;;1.50;1.00;;;12.50;98.20;;;;;;5007464;28;20459;-75
2021/11/08 14:25:10;;;;;;;1.60;1.10;;;12.50;98.20;;;;;;5005395;28;20562;-74
2021/11/08 14:27:40;;;;;;;1.53;1.10;;;12.50;98.20;;;;;;5008335;28;20483;-76
2021/11/08 14:30:12;;;;;;;1.50;1.00;;;12.50;98.20;;;;;;5000511;28;20499;-75
2021/11/08 14:32:42;;;;;;;1.50;1.00;;;12.40;98.20;;;;;;4998144;28;20467;-75